createdAt,value
2023-04-09T00:01:24.726Z,99.90
2023-04-09T00:03:53.787Z,99.90
2023-04-09T00:06:21.835Z,99.90
2023-04-09T00:08:51.375Z,99.90
2023-04-09T00:11:19.723Z,99.90
2023-04-09T00:13:47.582Z,99.90
2023-04-09T00:16:15.534Z,99.90
2023-04-09T00:18:43.404Z,99.90
2023-04-09T00:21:11.265Z,99.90
2023-04-09T00:23:39.157Z,99.90
2023-04-09T00:26:08.435Z,99.90
2023-04-09T00:28:36.668Z,99.90
2023-04-09T00:31:04.665Z,99.90
2023-04-09T00:33:32.638Z,99.90
2023-04-09T00:36:00.686Z,99.90
2023-04-09T00:38:28.528Z,99.90
2023-04-09T00:40:56.531Z,99.90
2023-04-09T00:43:25.847Z,99.90
2023-04-09T00:45:53.911Z,99.90
2023-04-09T00:48:22.226Z,99.90
2023-04-09T00:50:50.180Z,99.90
2023-04-09T00:53:18.945Z,99.90
2023-04-09T00:55:46.999Z,99.90
2023-04-09T00:58:15.229Z,99.90
2023-04-09T01:00:44.641Z,99.90
2023-04-09T01:03:12.952Z,99.90
2023-04-09T01:05:51.030Z,99.90
2023-04-09T01:08:27.427Z,99.90
2023-04-09T01:11:04.004Z,99.90
2023-04-09T01:13:43.434Z,99.90
2023-04-09T01:16:16.665Z,99.90
2023-04-09T01:18:51.503Z,99.90
2023-04-09T01:21:24.328Z,99.90
2023-04-09T01:24:13.248Z,99.90
2023-04-09T01:26:54.663Z,99.90
2023-04-09T01:29:26.483Z,99.90
2023-04-09T01:31:56.694Z,99.90
2023-04-09T01:34:24.796Z,99.90
2023-04-09T01:36:57.783Z,99.90
2023-04-09T01:39:26.335Z,99.90
2023-04-09T01:41:56.129Z,99.90
2023-04-09T01:44:26.245Z,99.90
2023-04-09T01:46:56.090Z,99.90
2023-04-09T01:49:24.291Z,99.90
2023-04-09T01:51:52.553Z,99.90
2023-04-09T01:54:20.421Z,99.90
2023-04-09T01:56:49.631Z,99.90
2023-04-09T01:59:17.630Z,99.90
2023-04-09T02:01:48.709Z,99.90
2023-04-09T02:04:23.729Z,99.90
2023-04-09T02:06:59.424Z,99.90
2023-04-09T02:09:30.605Z,99.90
2023-04-09T02:12:00.836Z,99.90
2023-04-09T02:14:30.357Z,99.90
2023-04-09T02:16:59.824Z,99.90
2023-04-09T02:19:40.173Z,99.90
2023-04-09T02:22:08.452Z,99.90
2023-04-09T02:24:36.394Z,99.90
2023-04-09T02:27:04.488Z,99.90
2023-04-09T02:29:32.545Z,99.90
2023-04-09T02:32:01.894Z,99.90
2023-04-09T02:34:29.971Z,99.90
2023-04-09T02:36:57.890Z,99.90
2023-04-09T02:39:26.044Z,99.90
2023-04-09T02:41:54.085Z,99.90
2023-04-09T02:44:22.068Z,99.90
2023-04-09T02:46:51.800Z,99.90
2023-04-09T02:49:21.173Z,99.90
2023-04-09T02:51:49.204Z,99.90
2023-04-09T02:54:17.114Z,99.90
2023-04-09T02:56:44.981Z,99.90
2023-04-09T02:59:12.870Z,99.90
2023-04-09T03:01:40.952Z,99.90
2023-04-09T03:04:09.015Z,99.90
2023-04-09T03:06:38.286Z,99.90
2023-04-09T03:09:06.193Z,99.90
2023-04-09T03:11:34.056Z,99.90
2023-04-09T03:14:01.896Z,99.90
2023-04-09T03:16:29.844Z,99.90
2023-04-09T03:18:57.665Z,99.90
2023-04-09T03:21:27.471Z,99.90
2023-04-09T03:23:56.677Z,99.90
2023-04-09T03:26:24.550Z,99.90
2023-04-09T03:28:52.580Z,99.90
2023-04-09T03:31:20.788Z,99.90
2023-04-09T03:33:48.692Z,99.90
2023-04-09T03:36:16.523Z,99.90
2023-04-09T03:38:44.475Z,99.90
2023-04-09T03:41:13.684Z,99.90
2023-04-09T03:43:41.626Z,99.90
2023-04-09T03:46:13.356Z,99.90
2023-04-09T03:48:41.279Z,99.90
2023-04-09T03:51:13.061Z,99.90
2023-04-09T03:53:41.031Z,99.90
2023-04-09T03:56:09.584Z,99.90
2023-04-09T03:58:39.028Z,99.90
2023-04-09T04:01:07.078Z,99.90
2023-04-09T04:03:35.006Z,99.90
2023-04-09T04:06:03.702Z,99.90
2023-04-09T04:08:31.663Z,99.90
2023-04-09T04:11:04.912Z,99.90
2023-04-09T04:13:32.890Z,99.90
2023-04-09T04:16:02.137Z,99.90
2023-04-09T04:18:30.102Z,99.90
2023-04-09T04:20:57.939Z,99.90
2023-04-09T04:23:25.853Z,99.90
2023-04-09T04:25:54.170Z,99.90
2023-04-09T04:28:22.132Z,99.90
2023-04-09T04:30:50.016Z,99.90
2023-04-09T04:33:19.500Z,99.90
2023-04-09T04:35:47.673Z,99.90
2023-04-09T04:38:15.692Z,99.90
2023-04-09T04:40:43.516Z,99.90
2023-04-09T04:43:11.365Z,99.90
2023-04-09T04:45:39.292Z,99.90
2023-04-09T04:48:07.225Z,99.90
2023-04-09T04:50:36.513Z,99.90
2023-04-09T04:53:04.433Z,99.90
2023-04-09T04:55:32.302Z,99.90
2023-04-09T04:58:00.200Z,99.90
2023-04-09T05:00:28.176Z,99.90
2023-04-09T05:02:56.352Z,99.90
2023-04-09T05:05:24.563Z,99.90
2023-04-09T05:07:53.764Z,99.90
2023-04-09T05:10:21.719Z,99.90
2023-04-09T05:12:49.659Z,99.90
2023-04-09T05:15:17.850Z,99.90
2023-04-09T05:17:46.070Z,99.90
2023-04-09T05:20:14.149Z,99.90
2023-04-09T05:22:42.059Z,99.90
2023-04-09T05:25:11.506Z,99.90
2023-04-09T05:27:39.366Z,99.90
2023-04-09T05:30:08.698Z,99.90
2023-04-09T05:32:36.696Z,99.90
2023-04-09T05:35:05.098Z,99.90
2023-04-09T05:37:33.057Z,99.90
2023-04-09T05:40:00.927Z,99.90
2023-04-09T05:42:30.304Z,99.90
2023-04-09T05:44:58.266Z,99.90
2023-04-09T05:47:26.209Z,99.90
2023-04-09T05:49:54.249Z,99.90
2023-04-09T05:52:22.210Z,99.90
2023-04-09T05:54:50.156Z,99.90
2023-04-09T05:57:18.042Z,99.90
2023-04-09T05:59:47.230Z,99.90
2023-04-09T06:02:15.341Z,99.90
2023-04-09T06:04:43.303Z,99.90
2023-04-09T06:07:11.417Z,99.90
2023-04-09T06:09:39.385Z,99.90
2023-04-09T06:12:07.308Z,99.90
2023-04-09T06:14:35.244Z,99.90
2023-04-09T06:17:04.551Z,99.90
2023-04-09T06:19:32.469Z,99.90
2023-04-09T06:22:00.375Z,99.90
2023-04-09T06:24:28.340Z,99.90
2023-04-09T06:26:56.215Z,99.90
2023-04-09T06:29:24.415Z,99.90
2023-04-09T06:31:52.587Z,99.90
2023-04-09T06:34:21.888Z,99.90
2023-04-09T06:36:49.786Z,99.90
2023-04-09T06:39:17.726Z,99.90
2023-04-09T06:41:46.455Z,99.90
2023-04-09T06:44:14.594Z,99.90
2023-04-09T06:46:42.544Z,99.90
2023-04-09T06:49:10.709Z,99.90
2023-04-09T06:51:39.988Z,99.90
2023-04-09T06:54:07.968Z,99.90
2023-04-09T06:56:36.003Z,99.90
2023-04-09T06:59:03.952Z,99.90
2023-04-09T07:01:31.919Z,99.90
2023-04-09T07:04:00.078Z,99.90
2023-04-09T07:06:28.244Z,99.90
2023-04-09T07:08:57.535Z,99.90
2023-04-09T07:11:25.439Z,99.90
2023-04-09T07:13:53.779Z,99.90
2023-04-09T07:16:21.831Z,99.90
2023-04-09T07:18:49.753Z,99.90
2023-04-09T07:21:17.737Z,99.90
2023-04-09T07:23:45.664Z,99.90
2023-04-09T07:26:14.946Z,99.90
2023-04-09T07:28:42.831Z,99.90
2023-04-09T07:31:11.253Z,99.90
2023-04-09T07:33:39.196Z,99.90
2023-04-09T07:36:07.468Z,99.90
2023-04-09T07:38:35.427Z,99.90
2023-04-09T07:41:03.291Z,99.90
2023-04-09T07:43:33.030Z,99.90
2023-04-09T07:46:01.002Z,99.90
2023-04-09T07:48:29.047Z,99.90
2023-04-09T07:50:56.965Z,99.90
2023-04-09T07:53:24.976Z,99.90
2023-04-09T07:55:53.044Z,99.90
2023-04-09T07:58:20.931Z,99.90
2023-04-09T08:00:50.799Z,99.90
2023-04-09T08:03:19.317Z,99.90
2023-04-09T08:05:47.497Z,99.90
2023-04-09T08:08:15.507Z,99.90
2023-04-09T08:10:43.360Z,99.90
2023-04-09T08:13:12.037Z,99.90
2023-04-09T08:15:40.032Z,99.90
2023-04-09T08:18:09.407Z,99.90
2023-04-09T08:20:37.955Z,99.90
2023-04-09T08:23:05.887Z,99.90
2023-04-09T08:25:33.804Z,99.90
2023-04-09T08:28:01.763Z,99.90
2023-04-09T08:30:29.650Z,99.90
2023-04-09T08:32:57.567Z,99.90
2023-04-09T08:35:28.425Z,99.90
2023-04-09T08:37:57.118Z,99.90
2023-04-09T08:40:25.436Z,99.90
2023-04-09T08:42:56.681Z,99.90
2023-04-09T08:45:25.823Z,99.90
2023-04-09T08:47:53.808Z,99.90
2023-04-09T08:50:21.877Z,99.90
2023-04-09T08:52:51.790Z,99.90
2023-04-09T08:55:19.695Z,99.90
2023-04-09T08:57:47.564Z,99.90
2023-04-09T09:00:15.631Z,99.90
2023-04-09T09:03:05.182Z,99.90
2023-04-09T09:05:40.952Z,99.90
2023-04-09T09:08:12.108Z,99.90
2023-04-09T09:10:41.609Z,99.90
2023-04-09T09:13:21.225Z,99.90
2023-04-09T09:15:50.574Z,99.90
2023-04-09T09:18:19.434Z,99.90
2023-04-09T09:20:47.439Z,99.90
2023-04-09T09:23:16.714Z,99.90
2023-04-09T09:25:44.919Z,99.90
2023-04-09T09:28:13.562Z,99.90
2023-04-09T09:30:41.849Z,99.90
2023-04-09T09:33:10.687Z,99.90
2023-04-09T09:35:50.151Z,99.90
2023-04-09T09:38:19.775Z,99.90
2023-04-09T09:40:48.047Z,99.90
2023-04-09T09:43:16.156Z,99.90
2023-04-09T09:45:45.148Z,99.90
2023-04-09T09:48:13.394Z,97.90
2023-04-09T09:50:42.732Z,94.10
2023-04-09T09:53:12.137Z,89.00
2023-04-09T09:55:43.344Z,72.60
2023-04-09T09:58:25.623Z,57.90
2023-04-09T10:00:54.457Z,49.30
2023-04-09T10:03:26.523Z,40.10
2023-04-09T10:05:54.887Z,32.10
2023-04-09T10:08:23.552Z,28.00
2023-04-09T10:10:53.733Z,26.20
2023-04-09T10:13:29.598Z,23.70
2023-04-09T10:15:57.741Z,21.60
2023-04-09T10:18:26.339Z,20.40
2023-04-09T10:20:59.730Z,18.60
2023-04-09T10:23:35.571Z,17.90
2023-04-09T10:26:05.861Z,16.50
2023-04-09T10:28:33.846Z,16.20
2023-04-09T10:31:02.698Z,15.70
2023-04-09T10:33:30.638Z,15.10
2023-04-09T10:36:02.355Z,14.10
2023-04-09T10:38:37.607Z,13.70
2023-04-09T10:41:16.702Z,14.40
2023-04-09T10:43:44.750Z,15.70
2023-04-09T10:46:29.979Z,16.40
2023-04-09T10:49:11.727Z,16.10
2023-04-09T10:51:40.834Z,17.00
2023-04-09T10:54:43.986Z,18.30
2023-04-09T10:57:14.965Z,19.70
2023-04-09T10:59:45.083Z,20.40
2023-04-09T11:02:46.358Z,20.90
2023-04-09T11:05:23.354Z,21.80
2023-04-09T11:07:56.150Z,21.30
2023-04-09T11:10:24.070Z,19.70
2023-04-09T11:12:55.052Z,18.20
2023-04-09T11:15:23.488Z,17.60
2023-04-09T11:17:51.975Z,16.80
2023-04-09T11:20:22.728Z,17.30
2023-04-09T11:22:51.861Z,18.00
2023-04-09T11:25:21.439Z,18.90
2023-04-09T11:27:51.068Z,19.90
2023-04-09T11:30:20.615Z,21.10
2023-04-09T11:32:49.604Z,22.50
2023-04-09T11:35:19.540Z,23.20
2023-04-09T11:37:48.662Z,23.00
2023-04-09T11:40:17.838Z,23.00
2023-04-09T11:42:46.339Z,23.70
2023-04-09T11:45:16.177Z,24.60
2023-04-09T11:47:46.604Z,25.10
2023-04-09T11:50:15.746Z,25.70
2023-04-09T11:52:44.045Z,26.20
2023-04-09T11:55:12.725Z,26.60
2023-04-09T11:57:42.887Z,27.10
2023-04-09T12:00:13.017Z,27.50
2023-04-09T12:02:47.415Z,27.70
2023-04-09T12:05:23.118Z,27.80
2023-04-09T12:07:56.325Z,28.30
2023-04-09T12:10:29.008Z,28.40
2023-04-09T12:13:01.795Z,28.90
2023-04-09T12:15:33.211Z,29.10
2023-04-09T12:18:02.668Z,29.50
2023-04-09T12:20:32.766Z,29.80
2023-04-09T12:23:03.424Z,30.00
2023-04-09T12:25:32.055Z,30.00
2023-04-09T12:28:00.443Z,30.00
2023-04-09T12:30:28.566Z,30.30
2023-04-09T12:32:57.075Z,30.40
2023-04-09T12:35:26.860Z,30.40
2023-04-09T12:37:55.060Z,30.60
2023-04-09T12:40:23.318Z,30.70
2023-04-09T12:42:51.658Z,30.70
2023-04-09T12:45:20.967Z,31.10
2023-04-09T12:47:49.241Z,31.40
2023-04-09T12:50:17.729Z,31.80
2023-04-09T12:52:47.345Z,31.90
2023-04-09T12:55:16.136Z,31.80
2023-04-09T12:57:45.733Z,31.60
2023-04-09T13:00:14.904Z,31.20
2023-04-09T13:02:43.085Z,31.50
2023-04-09T13:05:11.565Z,31.90
2023-04-09T13:07:40.866Z,32.20
2023-04-09T13:10:12.274Z,32.30
2023-04-09T13:12:40.488Z,32.40
2023-04-09T13:15:08.936Z,32.40
2023-04-09T13:17:36.948Z,32.20
2023-04-09T13:20:05.462Z,32.00
2023-04-09T13:22:33.461Z,32.40
2023-04-09T13:25:01.510Z,32.70
2023-04-09T13:27:30.847Z,32.70
2023-04-09T13:29:58.808Z,32.90
2023-04-09T13:32:27.060Z,33.00
2023-04-09T13:34:55.801Z,32.60
2023-04-09T13:37:23.766Z,33.00
2023-04-09T13:39:52.129Z,32.90
2023-04-09T13:42:19.999Z,32.80
2023-04-09T13:44:49.378Z,32.80
2023-04-09T13:47:18.416Z,33.00
2023-04-09T13:49:46.586Z,33.10
2023-04-09T13:52:15.392Z,33.10
2023-04-09T13:54:43.299Z,33.20
2023-04-09T13:57:11.323Z,33.10
2023-04-09T13:59:41.643Z,33.00
2023-04-09T14:02:11.527Z,33.50
2023-04-09T14:04:39.639Z,33.50
2023-04-09T14:07:08.408Z,33.40
2023-04-09T14:09:36.423Z,33.50
2023-04-09T14:12:04.626Z,33.30
2023-04-09T14:14:32.577Z,33.40
2023-04-09T14:17:00.525Z,33.90
2023-04-09T14:19:29.895Z,34.30
2023-04-09T14:21:57.835Z,34.30
2023-04-09T14:24:25.814Z,34.40
2023-04-09T14:26:53.992Z,34.50
2023-04-09T14:29:22.595Z,34.50
2023-04-09T14:31:51.797Z,34.40
2023-04-09T14:34:19.826Z,34.50
2023-04-09T14:36:49.100Z,34.80
2023-04-09T14:39:17.791Z,34.40
2023-04-09T14:41:45.895Z,34.40
2023-04-09T14:44:13.908Z,34.60
2023-04-09T14:46:42.058Z,34.20
2023-04-09T14:49:10.079Z,34.30
2023-04-09T14:51:38.315Z,34.20
2023-04-09T14:54:07.580Z,34.10
2023-04-09T14:56:36.067Z,34.30
2023-04-09T14:59:04.342Z,34.40
2023-04-09T15:01:33.273Z,34.70
2023-04-09T15:04:01.589Z,34.90
2023-04-09T15:06:31.380Z,34.80
2023-04-09T15:08:59.306Z,34.70
2023-04-09T15:11:29.416Z,34.90
2023-04-09T15:13:57.872Z,35.10
2023-04-09T15:16:28.657Z,35.10
2023-04-09T15:18:58.819Z,35.20
2023-04-09T15:21:27.163Z,35.50
2023-04-09T15:23:56.116Z,35.80
2023-04-09T15:26:24.033Z,36.00
2023-04-09T15:28:54.285Z,35.90
2023-04-09T15:31:22.467Z,35.70
2023-04-09T15:33:50.569Z,35.30
2023-04-09T15:36:18.559Z,35.60
2023-04-09T15:38:46.503Z,35.50
2023-04-09T15:41:16.801Z,35.10
2023-04-09T15:43:44.761Z,34.20
2023-04-09T15:46:16.273Z,33.80
2023-04-09T15:48:44.283Z,33.90
2023-04-09T15:51:12.271Z,33.90
2023-04-09T15:53:40.224Z,34.00
2023-04-09T15:56:10.357Z,33.70
2023-04-09T15:58:40.078Z,33.50
2023-04-09T16:01:08.781Z,34.20
2023-04-09T16:03:39.917Z,33.40
2023-04-09T16:06:09.397Z,33.70
2023-04-09T16:08:38.060Z,33.40
2023-04-09T16:11:07.567Z,33.40
2023-04-09T16:13:35.772Z,33.40
2023-04-09T16:16:03.824Z,33.30
2023-04-09T16:18:31.946Z,33.60
2023-04-09T16:21:01.455Z,33.50
2023-04-09T16:23:30.746Z,33.60
2023-04-09T16:25:58.893Z,33.70
2023-04-09T16:28:27.071Z,33.90
2023-04-09T16:30:55.063Z,33.90
2023-04-09T16:33:22.971Z,34.20
2023-04-09T16:35:50.908Z,34.40
2023-04-09T16:38:20.375Z,34.50
2023-04-09T16:40:48.361Z,34.50
2023-04-09T16:43:16.258Z,34.70
2023-04-09T16:45:45.356Z,34.90
2023-04-09T16:48:13.497Z,35.00
2023-04-09T16:50:41.487Z,35.10
2023-04-09T16:53:09.803Z,35.00
2023-04-09T16:55:39.128Z,34.90
2023-04-09T16:58:07.149Z,35.20
2023-04-09T17:00:35.756Z,35.90
2023-04-09T17:03:03.817Z,35.30
2023-04-09T17:05:37.000Z,35.30
2023-04-09T17:08:08.009Z,35.50
2023-04-09T17:10:40.437Z,35.80
2023-04-09T17:13:08.309Z,36.00
2023-04-09T17:15:36.290Z,36.20
2023-04-09T17:18:04.380Z,36.50
2023-04-09T17:20:32.783Z,37.00
2023-04-09T17:23:03.264Z,37.30
2023-04-09T17:25:31.355Z,37.50
2023-04-09T17:28:01.702Z,37.80
2023-04-09T17:30:29.699Z,38.60
2023-04-09T17:32:57.749Z,38.20
2023-04-09T17:35:25.996Z,38.50
2023-04-09T17:37:53.982Z,38.70
2023-04-09T17:40:22.477Z,38.90
2023-04-09T17:42:50.485Z,39.10
2023-04-09T17:45:19.912Z,39.20
2023-04-09T17:47:48.029Z,39.40
2023-04-09T17:50:16.096Z,39.50
2023-04-09T17:52:44.007Z,39.60
2023-04-09T17:55:13.865Z,39.60
2023-04-09T17:57:42.859Z,39.80
2023-04-09T18:00:12.029Z,40.00
2023-04-09T18:02:43.527Z,40.20
2023-04-09T18:05:11.898Z,40.40
2023-04-09T18:07:39.924Z,40.70
2023-04-09T18:10:08.484Z,40.80
2023-04-09T18:12:36.454Z,41.00
2023-04-09T18:15:04.759Z,41.30
2023-04-09T18:17:32.644Z,41.50
2023-04-09T18:20:02.034Z,41.60
2023-04-09T18:22:30.721Z,41.90
2023-04-09T18:24:58.680Z,42.00
2023-04-09T18:27:26.542Z,42.20
2023-04-09T18:29:54.493Z,42.40
2023-04-09T18:32:23.634Z,42.60
2023-04-09T18:34:52.124Z,42.80
2023-04-09T18:37:22.628Z,43.00
2023-04-09T18:39:50.829Z,43.20
2023-04-09T18:42:18.720Z,43.40
2023-04-09T18:44:46.571Z,43.60
2023-04-09T18:47:14.498Z,43.90
2023-04-09T18:49:42.325Z,44.10
2023-04-09T18:52:10.299Z,44.30
2023-04-09T18:54:39.586Z,44.50
2023-04-09T18:57:07.543Z,44.70
2023-04-09T18:59:35.902Z,44.90
2023-04-09T19:02:04.956Z,45.10
2023-04-09T19:04:36.341Z,45.30
2023-04-09T19:07:04.629Z,45.60
2023-04-09T19:09:33.591Z,45.70
2023-04-09T19:12:02.902Z,45.90
2023-04-09T19:14:30.965Z,46.10
2023-04-09T19:16:59.662Z,46.30
2023-04-09T19:19:29.031Z,46.50
2023-04-09T19:21:57.349Z,46.80
2023-04-09T19:24:25.962Z,47.00
2023-04-09T19:26:53.885Z,47.20
2023-04-09T19:29:23.252Z,47.40
2023-04-09T19:31:51.215Z,47.60
2023-04-09T19:34:19.271Z,47.80
2023-04-09T19:36:47.156Z,48.00
2023-04-09T19:39:15.515Z,48.30
2023-04-09T19:41:43.478Z,48.60
2023-04-09T19:44:11.431Z,48.90
2023-04-09T19:46:40.961Z,49.10
2023-04-09T19:49:09.027Z,50.00
2023-04-09T19:51:37.104Z,49.70
2023-04-09T19:54:05.300Z,50.00
2023-04-09T19:56:33.366Z,50.30
2023-04-09T19:59:02.260Z,50.60
2023-04-09T20:01:30.184Z,50.90
2023-04-09T20:03:59.612Z,51.30
2023-04-09T20:06:28.872Z,51.60
2023-04-09T20:08:56.859Z,51.90
2023-04-09T20:11:24.795Z,52.20
2023-04-09T20:13:52.764Z,52.60
2023-04-09T20:16:20.809Z,52.90
2023-04-09T20:18:48.788Z,53.30
2023-04-09T20:21:18.768Z,53.60
2023-04-09T20:23:46.711Z,54.00
2023-04-09T20:26:14.651Z,54.40
2023-04-09T20:28:42.598Z,54.90
2023-04-09T20:31:10.635Z,55.60
2023-04-09T20:33:38.582Z,56.00
2023-04-09T20:36:14.990Z,56.40
2023-04-09T20:38:44.645Z,56.70
2023-04-09T20:41:12.694Z,57.00
2023-04-09T20:43:40.720Z,57.40
2023-04-09T20:46:08.719Z,57.90
2023-04-09T20:48:36.764Z,58.30
2023-04-09T20:51:09.158Z,58.90
2023-04-09T20:53:37.562Z,59.40
2023-04-09T20:56:09.054Z,60.00
2023-04-09T20:58:37.249Z,60.80
2023-04-09T21:01:07.233Z,61.60
2023-04-09T21:03:36.044Z,62.50
2023-04-09T21:06:04.308Z,63.10
2023-04-09T21:08:32.324Z,63.80
2023-04-09T21:11:00.281Z,64.50
2023-04-09T21:13:30.958Z,65.30
2023-04-09T21:16:01.717Z,66.00
2023-04-09T21:18:29.889Z,66.70
2023-04-09T21:20:57.919Z,67.60
2023-04-09T21:23:26.006Z,68.60
2023-04-09T21:25:53.969Z,69.30
2023-04-09T21:28:21.859Z,71.00
2023-04-09T21:30:51.737Z,71.10
2023-04-09T21:33:19.738Z,72.00
2023-04-09T21:35:47.748Z,72.60
2023-04-09T21:38:16.542Z,73.40
2023-04-09T21:40:46.341Z,74.00
2023-04-09T21:43:14.298Z,74.70
2023-04-09T21:45:42.287Z,75.50
2023-04-09T21:48:11.712Z,76.20
2023-04-09T21:50:39.703Z,76.90
2023-04-09T21:53:08.211Z,77.60
2023-04-09T21:55:37.292Z,78.30
2023-04-09T21:58:05.277Z,78.70
2023-04-09T22:00:33.268Z,79.30
2023-04-09T22:03:02.035Z,79.80
2023-04-09T22:05:34.282Z,80.40
2023-04-09T22:08:02.265Z,80.80
2023-04-09T22:10:30.182Z,81.20
2023-04-09T22:12:58.086Z,81.70
2023-04-09T22:15:26.321Z,82.30
2023-04-09T22:17:54.381Z,82.80
2023-04-09T22:20:24.442Z,83.20
2023-04-09T22:22:55.217Z,83.50
2023-04-09T22:25:23.497Z,83.90
2023-04-09T22:27:52.779Z,84.20
2023-04-09T22:30:23.649Z,84.50
2023-04-09T22:32:52.247Z,84.80
2023-04-09T22:35:20.603Z,85.20
2023-04-09T22:37:48.539Z,85.60
2023-04-09T22:40:17.988Z,86.00
2023-04-09T22:42:47.822Z,86.30
2023-04-09T22:45:15.957Z,86.60
2023-04-09T22:47:43.947Z,87.00
2023-04-09T22:50:13.533Z,87.40
2023-04-09T22:52:41.579Z,87.60
2023-04-09T22:55:10.956Z,87.90
2023-04-09T22:57:42.746Z,88.30
2023-04-09T23:00:11.123Z,88.80
2023-04-09T23:02:39.161Z,89.40
2023-04-09T23:05:08.204Z,89.90
2023-04-09T23:07:36.316Z,90.10
2023-04-09T23:10:04.189Z,90.40
2023-04-09T23:12:32.137Z,90.60
2023-04-09T23:15:01.572Z,90.80
2023-04-09T23:17:29.514Z,91.00
2023-04-09T23:19:57.398Z,91.20
2023-04-09T23:22:27.021Z,91.50
2023-04-09T23:24:55.003Z,91.80
2023-04-09T23:27:28.199Z,92.00
2023-04-09T23:29:56.976Z,92.30
2023-04-09T23:32:26.410Z,92.50
2023-04-09T23:34:54.324Z,92.70
2023-04-09T23:37:22.243Z,92.90
2023-04-09T23:39:50.277Z,93.10
2023-04-09T23:42:18.437Z,93.30
2023-04-09T23:44:46.708Z,93.50
2023-04-09T23:47:14.780Z,93.80
2023-04-09T23:49:44.985Z,94.00
2023-04-09T23:52:12.931Z,94.30
2023-04-09T23:54:48.754Z,94.60
2023-04-09T23:57:17.041Z,94.80
2023-04-09T23:59:44.966Z,95.10
